createdAt,value
2023-02-17T00:00:05.926Z,24.70
2023-02-17T00:02:49.795Z,23.47
2023-02-17T00:05:34.954Z,23.27
2023-02-17T00:08:18.904Z,24.00
2023-02-17T00:11:02.976Z,23.40
2023-02-17T00:13:47.395Z,23.93
2023-02-17T00:16:31.268Z,24.77
2023-02-17T00:19:27.201Z,23.47
2023-02-17T00:22:12.441Z,24.80
2023-02-17T00:24:56.211Z,24.00
2023-02-17T00:27:40.069Z,24.73
2023-02-17T00:30:24.119Z,24.70
2023-02-17T00:33:09.926Z,26.87
2023-02-17T00:35:53.569Z,28.43
2023-02-17T00:38:38.893Z,29.77
2023-02-17T00:41:23.638Z,28.90
2023-02-17T00:44:07.396Z,27.43
2023-02-17T00:46:51.673Z,27.57
2023-02-17T00:49:37.212Z,26.47
2023-02-17T00:52:21.054Z,27.53
2023-02-17T00:55:06.733Z,25.77
2023-02-17T00:57:50.857Z,26.90
2023-02-17T01:00:34.956Z,27.90
2023-02-17T01:03:20.286Z,27.40
2023-02-17T01:06:09.048Z,26.13
2023-02-17T01:08:53.208Z,30.90
2023-02-17T01:11:38.966Z,28.60
2023-02-17T01:14:22.820Z,28.87
2023-02-17T01:17:06.688Z,27.17
2023-02-17T01:19:50.513Z,27.33
2023-02-17T01:22:35.030Z,24.47
2023-02-17T01:25:18.891Z,23.93
2023-02-17T01:28:04.631Z,23.83
2023-02-17T01:30:49.353Z,26.00
2023-02-17T01:33:33.212Z,23.27
2023-02-17T01:36:19.715Z,25.43
2023-02-17T01:39:03.594Z,24.57
2023-02-17T01:41:47.658Z,23.50
2023-02-17T01:44:34.150Z,24.10
2023-02-17T01:47:18.004Z,24.87
2023-02-17T01:50:01.846Z,22.00
2023-02-17T01:52:47.665Z,22.97
2023-02-17T01:55:35.090Z,21.83
2023-02-17T01:58:25.968Z,21.80
2023-02-17T02:01:11.192Z,23.50
2023-02-17T02:03:55.879Z,22.57
2023-02-17T02:06:42.065Z,22.30
2023-02-17T02:09:31.443Z,21.73
2023-02-17T02:12:23.558Z,23.13
2023-02-17T02:15:10.647Z,22.57
2023-02-17T02:18:24.405Z,23.23
2023-02-17T02:21:34.836Z,22.20
2023-02-17T02:24:29.379Z,21.20
2023-02-17T02:27:41.750Z,24.10
2023-02-17T02:30:42.425Z,22.43
2023-02-17T02:33:35.547Z,21.60
2023-02-17T02:36:23.963Z,22.73
2023-02-17T02:39:13.270Z,22.23
2023-02-17T02:42:00.140Z,23.77
2023-02-17T02:44:44.325Z,23.17
2023-02-17T02:47:44.754Z,23.67
2023-02-17T02:50:44.574Z,23.87
2023-02-17T02:53:53.626Z,22.20
2023-02-17T02:56:54.260Z,21.57
2023-02-17T02:59:53.711Z,22.43
2023-02-17T03:02:44.258Z,21.93
2023-02-17T03:05:36.819Z,20.37
2023-02-17T03:08:26.176Z,19.03
2023-02-17T03:11:10.060Z,20.13
2023-02-17T03:13:53.765Z,19.60
2023-02-17T03:16:40.141Z,19.10
2023-02-17T03:19:26.152Z,19.70
2023-02-17T03:22:20.901Z,19.63
2023-02-17T03:25:05.570Z,20.13
2023-02-17T03:27:49.731Z,19.43
2023-02-17T03:30:33.631Z,18.73
2023-02-17T03:33:17.524Z,18.60
2023-02-17T03:36:01.297Z,17.67
2023-02-17T03:38:46.670Z,17.10
2023-02-17T03:41:30.382Z,19.00
2023-02-17T03:44:14.186Z,16.70
2023-02-17T03:46:57.954Z,18.23
2023-02-17T03:49:41.636Z,16.97
2023-02-17T03:52:25.441Z,18.37
2023-02-17T03:55:10.682Z,17.90
2023-02-17T03:57:55.859Z,21.47
2023-02-17T04:00:39.828Z,21.03
2023-02-17T04:03:23.734Z,22.73
2023-02-17T04:06:08.842Z,20.43
2023-02-17T04:08:52.658Z,18.47
2023-02-17T04:11:38.082Z,18.37
2023-02-17T04:14:21.825Z,18.60
2023-02-17T04:17:05.581Z,18.33
2023-02-17T04:19:49.347Z,19.00
2023-02-17T04:22:33.125Z,18.17
2023-02-17T04:25:17.015Z,45.17
2023-02-17T04:28:02.250Z,20.87
2023-02-17T04:30:46.605Z,20.63
2023-02-17T04:33:30.969Z,20.00
2023-02-17T04:36:14.755Z,23.80
2023-02-17T04:38:58.833Z,31.27
2023-02-17T04:41:42.650Z,20.73
2023-02-17T04:44:28.010Z,32.07
2023-02-17T04:47:11.844Z,39.40
2023-02-17T04:49:55.727Z,32.87
2023-02-17T04:52:39.929Z,36.27
2023-02-17T04:55:23.871Z,26.47
2023-02-17T04:58:07.694Z,19.97
2023-02-17T05:00:52.925Z,20.27
2023-02-17T05:03:36.786Z,22.20
2023-02-17T05:06:20.611Z,26.80
2023-02-17T05:09:04.588Z,26.50
2023-02-17T05:11:48.315Z,20.67
2023-02-17T05:14:32.080Z,22.47
2023-02-17T05:17:17.286Z,19.57
2023-02-17T05:20:01.387Z,19.87
2023-02-17T05:22:46.631Z,20.30
2023-02-17T05:25:30.853Z,21.13
2023-02-17T05:28:14.692Z,20.47
2023-02-17T05:30:58.589Z,19.77
2023-02-17T05:33:43.752Z,19.00
2023-02-17T05:36:27.515Z,38.87
2023-02-17T05:39:11.332Z,47.57
2023-02-17T05:41:56.657Z,20.40
2023-02-17T05:44:40.526Z,19.93
2023-02-17T05:47:26.650Z,20.00
2023-02-17T05:50:13.529Z,18.90
2023-02-17T05:52:57.450Z,19.00
2023-02-17T05:55:41.167Z,18.47
2023-02-17T05:58:25.159Z,32.30
2023-02-17T06:01:09.911Z,26.63
2023-02-17T06:03:53.905Z,22.63
2023-02-17T06:06:39.238Z,24.30
2023-02-17T06:09:23.102Z,27.80
2023-02-17T06:12:07.245Z,50.47
2023-02-17T06:14:50.994Z,50.70
2023-02-17T06:17:34.789Z,48.97
2023-02-17T06:20:18.833Z,57.13
2023-02-17T06:23:03.994Z,53.37
2023-02-17T06:25:47.887Z,51.17
2023-02-17T06:28:33.645Z,49.23
2023-02-17T06:31:18.786Z,39.87
2023-02-17T06:34:04.327Z,40.90
2023-02-17T06:36:50.402Z,30.70
2023-02-17T06:39:35.625Z,38.37
2023-02-17T06:42:19.684Z,48.57
2023-02-17T06:45:06.138Z,55.50
2023-02-17T06:47:50.130Z,45.27
2023-02-17T06:50:34.067Z,46.20
2023-02-17T06:53:17.853Z,41.63
2023-02-17T06:56:03.059Z,36.07
2023-02-17T06:58:46.916Z,33.40
2023-02-17T07:01:31.228Z,30.03
2023-02-17T07:04:15.074Z,30.37
2023-02-17T07:06:59.040Z,31.23
2023-02-17T07:09:42.905Z,33.13
2023-02-17T07:12:29.141Z,30.20
2023-02-17T07:15:13.108Z,31.03
2023-02-17T07:17:56.999Z,29.00
2023-02-17T07:20:40.744Z,25.60
2023-02-17T07:23:25.081Z,25.33
2023-02-17T07:26:10.668Z,26.23
2023-02-17T07:28:56.084Z,25.33
2023-02-17T07:31:40.012Z,25.17
2023-02-17T07:34:23.935Z,30.33
2023-02-17T07:37:07.731Z,24.07
2023-02-17T07:39:52.480Z,21.80
2023-02-17T07:42:36.306Z,17.90
2023-02-17T07:45:21.563Z,18.37
2023-02-17T07:48:06.105Z,30.70
2023-02-17T07:50:49.970Z,29.17
2023-02-17T07:53:34.018Z,33.40
2023-02-17T07:56:19.964Z,30.43
2023-02-17T07:59:03.854Z,24.60
2023-02-17T08:01:49.890Z,41.07
2023-02-17T08:04:33.968Z,22.73
2023-02-17T08:07:20.298Z,21.77
2023-02-17T08:10:22.728Z,21.47
2023-02-17T08:13:21.909Z,22.70
2023-02-17T08:16:06.574Z,21.00
2023-02-17T08:18:51.923Z,18.90
2023-02-17T08:21:36.044Z,18.60
2023-02-17T08:24:21.456Z,18.43
2023-02-17T08:27:06.623Z,18.43
2023-02-17T08:29:51.338Z,18.93
2023-02-17T08:32:35.152Z,18.40
2023-02-17T08:35:22.609Z,18.93
2023-02-17T08:38:06.694Z,18.73
2023-02-17T08:40:51.040Z,19.50
2023-02-17T08:43:34.916Z,17.77
2023-02-17T08:46:20.403Z,19.03
2023-02-17T08:49:05.065Z,19.07
2023-02-17T08:51:51.388Z,18.47
2023-02-17T08:54:35.529Z,18.67
2023-02-17T08:57:21.769Z,19.30
2023-02-17T09:00:08.374Z,20.23
2023-02-17T09:02:52.874Z,20.03
2023-02-17T09:05:37.181Z,19.07
2023-02-17T09:08:23.606Z,20.27
2023-02-17T09:11:09.510Z,20.80
2023-02-17T09:13:53.451Z,19.73
2023-02-17T09:16:39.602Z,19.63
2023-02-17T09:19:25.977Z,18.30
2023-02-17T09:22:13.616Z,19.40
2023-02-17T09:25:03.010Z,19.97
2023-02-17T09:27:47.134Z,20.50
2023-02-17T09:30:31.684Z,18.97
2023-02-17T09:33:15.563Z,21.33
2023-02-17T09:35:59.609Z,19.53
2023-02-17T09:38:44.254Z,21.47
2023-02-17T09:41:35.782Z,19.97
2023-02-17T09:44:23.966Z,19.70
2023-02-17T09:47:13.414Z,21.10
2023-02-17T09:50:03.693Z,21.43
2023-02-17T09:52:56.689Z,20.90
2023-02-17T09:55:46.207Z,22.20
2023-02-17T09:58:36.050Z,20.83
2023-02-17T10:01:22.997Z,22.00
2023-02-17T10:04:12.230Z,20.80
2023-02-17T10:07:02.895Z,22.70
2023-02-17T10:09:52.433Z,21.33
2023-02-17T10:12:41.341Z,20.93
2023-02-17T10:15:32.015Z,21.60
2023-02-17T10:18:22.902Z,20.67
2023-02-17T10:21:13.257Z,20.50
2023-02-17T10:23:57.583Z,20.67
2023-02-17T10:26:53.686Z,20.00
2023-02-17T10:29:49.564Z,19.70
2023-02-17T10:32:46.001Z,20.90
2023-02-17T10:35:42.832Z,20.00
2023-02-17T10:38:42.934Z,19.73
2023-02-17T10:41:32.669Z,17.47
2023-02-17T10:44:22.488Z,20.07
2023-02-17T10:47:07.162Z,19.70
2023-02-17T10:49:55.867Z,19.57
2023-02-17T10:52:41.613Z,18.97
2023-02-17T10:55:35.109Z,19.17
2023-02-17T10:58:26.140Z,18.33
2023-02-17T11:01:10.206Z,20.53
2023-02-17T11:04:03.231Z,19.77
2023-02-17T11:06:51.553Z,18.83
2023-02-17T11:09:36.458Z,20.53
2023-02-17T11:12:26.367Z,19.40
2023-02-17T11:15:19.713Z,19.40
2023-02-17T11:18:11.699Z,18.93
2023-02-17T11:21:03.108Z,17.67
2023-02-17T11:23:55.034Z,17.30
2023-02-17T11:26:39.348Z,18.13
2023-02-17T11:29:24.976Z,17.83
2023-02-17T11:32:12.534Z,18.17
2023-02-17T11:34:58.917Z,16.57
2023-02-17T11:37:43.956Z,16.50
2023-02-17T11:40:30.972Z,17.77
2023-02-17T11:43:19.279Z,17.83
2023-02-17T11:46:16.575Z,17.57
2023-02-17T11:49:39.935Z,17.73
2023-02-17T11:52:39.836Z,18.43
2023-02-17T11:55:30.487Z,16.73
2023-02-17T11:58:31.083Z,17.33
2023-02-17T12:01:25.944Z,14.80
2023-02-17T12:04:26.878Z,13.07
2023-02-17T12:07:40.951Z,13.50
2023-02-17T12:10:38.438Z,13.20
2023-02-17T12:13:32.742Z,13.37
2023-02-17T12:16:27.902Z,15.33
2023-02-17T12:19:37.193Z,12.00
2023-02-17T12:22:28.148Z,12.80
2023-02-17T12:25:26.155Z,15.60
2023-02-17T12:28:29.727Z,14.00
2023-02-17T12:31:27.762Z,14.87
2023-02-17T12:34:21.213Z,13.50
2023-02-17T12:37:08.619Z,12.83
2023-02-17T12:39:56.225Z,13.40
2023-02-17T12:42:44.964Z,15.07
2023-02-17T12:45:38.392Z,13.17
2023-02-17T12:48:35.357Z,14.43
2023-02-17T12:51:24.388Z,14.33
2023-02-17T12:54:18.495Z,12.93
2023-02-17T12:57:12.606Z,13.10
2023-02-17T12:59:59.864Z,13.40
2023-02-17T13:02:43.840Z,12.53
2023-02-17T13:05:35.361Z,12.97
2023-02-17T13:08:24.471Z,13.53
2023-02-17T13:11:12.517Z,11.77
2023-02-17T13:13:56.718Z,11.93
2023-02-17T13:16:44.811Z,11.57
2023-02-17T13:19:30.022Z,11.83
2023-02-17T13:22:24.433Z,12.53
2023-02-17T13:25:12.030Z,12.47
2023-02-17T13:27:57.716Z,12.27
2023-02-17T13:30:43.324Z,13.17
2023-02-17T13:33:32.890Z,13.23
2023-02-17T13:36:23.346Z,12.97
2023-02-17T13:39:33.322Z,13.47
2023-02-17T13:42:40.692Z,13.67
2023-02-17T13:45:27.884Z,12.80
2023-02-17T13:48:23.773Z,13.67
2023-02-17T13:51:09.904Z,13.23
2023-02-17T13:53:54.286Z,14.10
2023-02-17T13:56:41.208Z,16.60
2023-02-17T13:59:28.345Z,14.30
2023-02-17T14:02:35.159Z,18.87
2023-02-17T14:05:22.450Z,17.27
2023-02-17T14:08:09.079Z,18.67
2023-02-17T14:10:53.260Z,19.17
2023-02-17T14:13:40.569Z,17.20
2023-02-17T14:16:30.796Z,15.37
2023-02-17T14:19:17.736Z,19.77
2023-02-17T14:22:04.918Z,20.27
2023-02-17T14:25:00.136Z,16.80
2023-02-17T14:27:45.998Z,18.93
2023-02-17T14:30:33.669Z,15.87
2023-02-17T14:33:23.947Z,16.67
2023-02-17T14:36:11.271Z,17.50
2023-02-17T14:38:57.145Z,15.50
2023-02-17T14:41:41.063Z,16.67
2023-02-17T14:44:25.147Z,18.10
2023-02-17T14:47:10.445Z,22.40
2023-02-17T14:49:54.464Z,17.97
2023-02-17T14:52:43.040Z,36.90
2023-02-17T14:55:34.200Z,18.73
2023-02-17T14:58:21.246Z,25.07
2023-02-17T15:01:06.075Z,18.37
2023-02-17T15:03:51.938Z,22.27
2023-02-17T15:06:41.006Z,26.73
2023-02-17T15:09:29.738Z,26.40
2023-02-17T15:12:16.309Z,19.67
2023-02-17T15:15:00.082Z,18.33
2023-02-17T15:17:44.559Z,20.17
2023-02-17T15:20:29.856Z,19.13
2023-02-17T15:23:15.847Z,20.50
2023-02-17T15:26:00.470Z,22.63
2023-02-17T15:28:44.644Z,25.20
2023-02-17T15:31:31.445Z,27.53
2023-02-17T15:34:17.905Z,26.03
2023-02-17T15:37:03.571Z,31.67
2023-02-17T15:39:47.516Z,24.67
2023-02-17T15:42:31.498Z,42.70
2023-02-17T15:45:18.385Z,25.20
2023-02-17T15:48:05.693Z,22.17
2023-02-17T15:50:49.883Z,23.33
2023-02-17T15:53:35.206Z,35.23
2023-02-17T15:56:22.706Z,25.57
2023-02-17T15:59:13.223Z,42.03
2023-02-17T16:01:57.644Z,30.90
2023-02-17T16:04:41.678Z,23.83
2023-02-17T16:07:25.742Z,22.60
2023-02-17T16:10:13.658Z,25.50
2023-02-17T16:12:59.575Z,22.57
2023-02-17T16:15:44.661Z,26.27
2023-02-17T16:18:28.533Z,22.50
2023-02-17T16:21:14.198Z,21.13
2023-02-17T16:24:00.454Z,24.77
2023-02-17T16:26:45.829Z,24.17
2023-02-17T16:29:29.786Z,31.23
2023-02-17T16:32:14.419Z,28.07
2023-02-17T16:34:58.594Z,26.80
2023-02-17T16:37:42.960Z,25.10
2023-02-17T16:40:30.001Z,28.10
2023-02-17T16:43:18.232Z,26.80
2023-02-17T16:46:06.257Z,27.17
2023-02-17T16:48:50.789Z,28.00
2023-02-17T16:51:34.610Z,27.80
2023-02-17T16:54:19.540Z,25.13
2023-02-17T16:57:03.403Z,37.93
2023-02-17T16:59:49.146Z,40.43
2023-02-17T17:02:33.131Z,25.87
2023-02-17T17:05:18.114Z,23.10
2023-02-17T17:08:02.059Z,22.80
2023-02-17T17:10:47.652Z,26.47
2023-02-17T17:13:31.767Z,30.27
2023-02-17T17:16:20.284Z,28.27
2023-02-17T17:19:05.085Z,24.50
2023-02-17T17:21:49.427Z,22.53
2023-02-17T17:24:33.507Z,33.27
2023-02-17T17:27:17.414Z,29.53
2023-02-17T17:30:01.465Z,24.67
2023-02-17T17:32:49.181Z,23.07
2023-02-17T17:35:33.477Z,22.77
2023-02-17T17:38:17.459Z,22.33
2023-02-17T17:41:08.185Z,18.80
2023-02-17T17:43:52.623Z,18.80
2023-02-17T17:46:37.874Z,18.87
2023-02-17T17:49:23.241Z,19.13
2023-02-17T17:52:07.115Z,20.80
2023-02-17T17:54:51.320Z,19.40
2023-02-17T17:57:35.218Z,19.07
2023-02-17T18:00:20.619Z,18.50
2023-02-17T18:03:05.157Z,18.20
2023-02-17T18:05:50.693Z,19.13
2023-02-17T18:08:35.460Z,22.53
2023-02-17T18:11:23.144Z,21.77
2023-02-17T18:14:12.448Z,25.13
2023-02-17T18:16:57.025Z,18.57
2023-02-17T18:19:41.638Z,16.93
2023-02-17T18:22:27.146Z,16.47
2023-02-17T18:25:11.617Z,16.90
2023-02-17T18:27:57.048Z,16.93
2023-02-17T18:30:41.240Z,16.07
2023-02-17T18:33:25.436Z,15.30
2023-02-17T18:36:11.159Z,14.83
2023-02-17T18:38:56.611Z,14.73
2023-02-17T18:41:40.614Z,15.73
2023-02-17T18:44:26.367Z,15.57
2023-02-17T18:47:10.311Z,14.57
2023-02-17T18:49:54.496Z,14.13
2023-02-17T18:52:38.586Z,15.90
2023-02-17T18:55:24.004Z,16.13
2023-02-17T18:58:07.992Z,15.43
2023-02-17T19:00:52.100Z,15.67
2023-02-17T19:03:35.918Z,14.97
2023-02-17T19:06:22.724Z,15.63
2023-02-17T19:09:07.016Z,15.20
2023-02-17T19:11:52.394Z,15.00
2023-02-17T19:14:36.649Z,15.07
2023-02-17T19:17:20.892Z,13.90
2023-02-17T19:20:05.244Z,14.83
2023-02-17T19:22:49.285Z,16.53
2023-02-17T19:25:33.223Z,13.00
2023-02-17T19:28:18.484Z,11.23
2023-02-17T19:31:02.801Z,12.07
2023-02-17T19:33:47.292Z,11.40
2023-02-17T19:36:31.183Z,16.90
2023-02-17T19:39:15.122Z,26.83
2023-02-17T19:41:58.947Z,29.90
2023-02-17T19:44:44.566Z,33.77
2023-02-17T19:47:30.891Z,26.60
2023-02-17T19:50:17.811Z,39.23
2023-02-17T19:53:01.927Z,32.77
2023-02-17T19:55:45.878Z,33.07
2023-02-17T19:58:29.815Z,34.53
2023-02-17T20:01:18.211Z,26.73
2023-02-17T20:04:05.602Z,30.77
2023-02-17T20:06:49.686Z,30.60
2023-02-17T20:09:33.431Z,19.70
2023-02-17T20:12:17.965Z,14.47
2023-02-17T20:15:01.865Z,12.67
2023-02-17T20:17:48.690Z,21.20
2023-02-17T20:20:32.521Z,20.50
2023-02-17T20:23:16.497Z,13.83
2023-02-17T20:26:00.909Z,13.33
2023-02-17T20:28:45.124Z,16.27
2023-02-17T20:31:29.662Z,29.50
2023-02-17T20:34:27.174Z,21.50
2023-02-17T20:37:11.536Z,16.53
2023-02-17T20:39:55.624Z,12.00
2023-02-17T20:42:39.468Z,14.20
2023-02-17T20:45:23.532Z,15.13
2023-02-17T20:48:07.407Z,14.67
2023-02-17T20:50:52.656Z,20.80
2023-02-17T20:53:36.734Z,19.17
2023-02-17T20:56:22.971Z,18.17
2023-02-17T20:59:09.007Z,19.47
2023-02-17T21:01:53.152Z,20.30
2023-02-17T21:04:37.276Z,19.60
2023-02-17T21:07:22.501Z,30.63
2023-02-17T21:10:08.693Z,26.23
2023-02-17T21:12:52.621Z,22.07
2023-02-17T21:15:36.504Z,17.70
2023-02-17T21:18:20.612Z,16.40
2023-02-17T21:21:04.678Z,15.87
2023-02-17T21:23:50.028Z,15.50
2023-02-17T21:26:34.166Z,14.23
2023-02-17T21:29:18.603Z,18.37
2023-02-17T21:32:02.498Z,14.43
2023-02-17T21:34:46.527Z,15.83
2023-02-17T21:37:30.823Z,13.90
2023-02-17T21:40:16.386Z,17.77
2023-02-17T21:43:17.429Z,16.77
2023-02-17T21:46:01.490Z,18.00
2023-02-17T21:48:47.973Z,18.47
2023-02-17T21:51:32.195Z,18.67
2023-02-17T21:54:16.241Z,18.60
2023-02-17T21:57:04.228Z,21.43
2023-02-17T21:59:48.477Z,22.23
2023-02-17T22:02:32.535Z,22.70
2023-02-17T22:05:17.138Z,20.23
2023-02-17T22:08:00.904Z,18.80
2023-02-17T22:10:46.077Z,22.13
2023-02-17T22:13:31.264Z,19.53
2023-02-17T22:16:15.090Z,29.67
2023-02-17T22:18:58.967Z,22.03
2023-02-17T22:21:43.560Z,20.13
2023-02-17T22:24:28.101Z,22.93
2023-02-17T22:27:12.035Z,20.70
2023-02-17T22:29:57.982Z,21.23
2023-02-17T22:32:43.113Z,24.13
2023-02-17T22:35:26.907Z,23.00
2023-02-17T22:38:11.659Z,22.87
2023-02-17T22:40:55.548Z,21.53
2023-02-17T22:43:42.213Z,21.30
2023-02-17T22:46:27.809Z,21.57
2023-02-17T22:49:12.043Z,20.20
2023-02-17T22:51:55.868Z,20.03
2023-02-17T22:54:41.068Z,21.70
2023-02-17T22:57:24.936Z,20.87
2023-02-17T23:00:09.596Z,21.53
2023-02-17T23:02:54.875Z,19.90
2023-02-17T23:05:38.678Z,20.63
2023-02-17T23:08:22.539Z,20.87
2023-02-17T23:11:07.280Z,15.77
2023-02-17T23:13:51.122Z,18.87
2023-02-17T23:16:35.141Z,19.57
2023-02-17T23:19:22.761Z,17.83
2023-02-17T23:22:09.047Z,13.23
2023-02-17T23:24:52.803Z,13.20
2023-02-17T23:27:36.662Z,14.07
2023-02-17T23:30:23.174Z,14.43
2023-02-17T23:33:06.968Z,14.40
2023-02-17T23:35:52.143Z,14.43
2023-02-17T23:38:36.094Z,16.23
2023-02-17T23:41:19.833Z,15.00
2023-02-17T23:44:03.801Z,13.67
2023-02-17T23:46:47.904Z,15.53
2023-02-17T23:49:31.643Z,16.10
2023-02-17T23:52:16.829Z,12.83
2023-02-17T23:55:00.675Z,14.27
2023-02-17T23:57:44.390Z,13.23
